createdAt,value
2023-02-22T00:00:43.145Z,13.20
2023-02-22T00:02:51.507Z,14.90
2023-02-22T00:04:59.397Z,12.57
2023-02-22T00:07:07.378Z,14.25
2023-02-22T00:09:20.874Z,14.10
2023-02-22T00:11:30.657Z,14.45
2023-02-22T00:13:39.540Z,14.73
2023-02-22T00:15:50.209Z,14.20
2023-02-22T00:17:58.459Z,14.65
2023-02-22T00:20:08.845Z,15.43
2023-02-22T00:22:28.948Z,13.52
2023-02-22T00:24:36.795Z,14.93
2023-02-22T00:26:47.109Z,13.70
2023-02-22T00:28:56.820Z,14.13
2023-02-22T00:31:09.843Z,12.52
2023-02-22T00:33:19.050Z,12.55
2023-02-22T00:35:28.573Z,12.80
2023-02-22T00:37:36.469Z,14.20
2023-02-22T00:39:44.896Z,14.10
2023-02-22T00:41:54.377Z,12.45
2023-02-22T00:44:02.456Z,13.70
2023-02-22T00:46:12.979Z,12.98
2023-02-22T00:48:20.882Z,13.38
2023-02-22T00:50:32.548Z,12.40
2023-02-22T00:52:41.255Z,12.68
2023-02-22T00:54:49.701Z,12.38
2023-02-22T00:57:01.202Z,13.35
2023-02-22T00:59:10.026Z,12.88
2023-02-22T01:01:20.888Z,12.60
2023-02-22T01:03:32.274Z,13.27
2023-02-22T01:05:41.164Z,12.20
2023-02-22T01:07:53.006Z,12.60
2023-02-22T01:10:02.312Z,13.13
2023-02-22T01:12:11.125Z,11.18
2023-02-22T01:14:21.173Z,12.23
2023-02-22T01:16:32.087Z,12.43
2023-02-22T01:18:40.402Z,12.40
2023-02-22T01:20:49.141Z,13.07
2023-02-22T01:23:00.032Z,12.30
2023-02-22T01:25:11.597Z,12.27
2023-02-22T01:27:20.729Z,12.50
2023-02-22T01:29:28.691Z,12.63
2023-02-22T01:31:39.184Z,13.75
2023-02-22T01:33:51.018Z,13.00
2023-02-22T01:35:59.799Z,12.60
2023-02-22T01:38:10.476Z,13.90
2023-02-22T01:40:24.121Z,12.50
2023-02-22T01:42:32.392Z,13.15
2023-02-22T01:44:41.996Z,13.02
2023-02-22T01:46:55.668Z,12.75
2023-02-22T01:49:07.508Z,11.77
2023-02-22T01:51:20.418Z,12.50
2023-02-22T01:53:32.206Z,11.90
2023-02-22T01:55:42.156Z,12.80
2023-02-22T01:57:51.391Z,12.77
2023-02-22T02:00:09.995Z,12.63
2023-02-22T02:02:25.340Z,12.20
2023-02-22T02:04:37.342Z,12.40
2023-02-22T02:06:45.778Z,13.68
2023-02-22T02:09:02.622Z,14.02
2023-02-22T02:11:11.713Z,14.25
2023-02-22T02:13:20.078Z,13.88
2023-02-22T02:15:30.953Z,13.25
2023-02-22T02:17:41.520Z,14.27
2023-02-22T02:20:02.179Z,13.38
2023-02-22T02:22:33.126Z,12.20
2023-02-22T02:25:18.317Z,14.55
2023-02-22T02:27:28.951Z,12.93
2023-02-22T02:30:11.864Z,15.30
2023-02-22T02:32:36.864Z,13.38
2023-02-22T02:34:53.450Z,12.82
2023-02-22T02:37:06.967Z,14.02
2023-02-22T02:39:24.634Z,13.63
2023-02-22T02:41:38.730Z,13.88
2023-02-22T02:43:54.767Z,13.52
2023-02-22T02:46:10.498Z,14.43
2023-02-22T02:48:26.300Z,13.15
2023-02-22T02:50:39.680Z,14.45
2023-02-22T02:52:49.433Z,14.73
2023-02-22T02:54:58.829Z,14.35
2023-02-22T02:57:07.266Z,13.40
2023-02-22T02:59:29.858Z,13.60
2023-02-22T03:01:51.514Z,13.35
2023-02-22T03:04:24.680Z,14.02
2023-02-22T03:07:08.801Z,14.02
2023-02-22T03:09:27.717Z,13.65
2023-02-22T03:11:48.538Z,12.32
2023-02-22T03:14:04.596Z,12.95
2023-02-22T03:16:23.750Z,14.68
2023-02-22T03:18:37.152Z,12.57
2023-02-22T03:20:55.813Z,13.35
2023-02-22T03:23:09.992Z,13.27
2023-02-22T03:25:25.430Z,14.25
2023-02-22T03:27:46.586Z,13.15
2023-02-22T03:30:00.510Z,13.13
2023-02-22T03:32:15.080Z,13.13
2023-02-22T03:34:27.150Z,13.88
2023-02-22T03:36:42.347Z,13.63
2023-02-22T03:38:52.324Z,13.30
2023-02-22T03:41:05.039Z,13.40
2023-02-22T03:43:18.178Z,13.98
2023-02-22T03:45:30.129Z,14.00
2023-02-22T03:47:42.871Z,13.30
2023-02-22T03:49:57.984Z,13.18
2023-02-22T03:52:12.926Z,13.57
2023-02-22T03:54:22.302Z,12.95
2023-02-22T03:56:36.563Z,13.80
2023-02-22T03:58:46.731Z,13.45
2023-02-22T04:00:56.165Z,13.80
2023-02-22T04:03:05.054Z,13.30
2023-02-22T04:05:14.289Z,13.10
2023-02-22T04:07:25.375Z,13.13
2023-02-22T04:09:33.691Z,15.02
2023-02-22T04:11:41.461Z,14.30
2023-02-22T04:13:49.533Z,14.48
2023-02-22T04:16:00.244Z,13.90
2023-02-22T04:18:09.331Z,13.57
2023-02-22T04:20:20.129Z,12.88
2023-02-22T04:22:43.858Z,13.82
2023-02-22T04:24:52.063Z,14.98
2023-02-22T04:27:01.498Z,13.45
2023-02-22T04:29:10.389Z,13.40
2023-02-22T04:31:20.886Z,13.48
2023-02-22T04:33:30.473Z,13.60
2023-02-22T04:35:38.303Z,14.15
2023-02-22T04:37:50.128Z,12.82
2023-02-22T04:39:58.409Z,13.88
2023-02-22T04:42:06.570Z,13.60
2023-02-22T04:44:15.326Z,13.57
2023-02-22T04:46:23.691Z,14.02
2023-02-22T04:48:36.532Z,13.80
2023-02-22T04:50:44.629Z,14.60
2023-02-22T04:52:56.275Z,15.43
2023-02-22T04:55:04.925Z,14.77
2023-02-22T04:57:13.788Z,12.55
2023-02-22T04:59:22.302Z,13.18
2023-02-22T05:01:36.405Z,12.80
2023-02-22T05:03:45.168Z,13.85
2023-02-22T05:05:54.870Z,14.02
2023-02-22T05:08:05.836Z,14.43
2023-02-22T05:10:14.810Z,13.93
2023-02-22T05:12:22.806Z,14.25
2023-02-22T05:14:33.341Z,13.35
2023-02-22T05:16:41.192Z,13.18
2023-02-22T05:18:49.335Z,14.90
2023-02-22T05:20:57.271Z,14.40
2023-02-22T05:23:08.545Z,14.00
2023-02-22T05:25:16.575Z,14.18
2023-02-22T05:27:24.396Z,14.85
2023-02-22T05:29:32.561Z,14.75
2023-02-22T05:31:42.176Z,13.20
2023-02-22T05:33:50.233Z,13.70
2023-02-22T05:35:58.344Z,13.90
2023-02-22T05:38:09.418Z,14.05
2023-02-22T05:40:17.525Z,14.80
2023-02-22T05:42:25.619Z,13.25
2023-02-22T05:44:33.420Z,13.25
2023-02-22T05:46:41.294Z,13.45
2023-02-22T05:48:49.074Z,13.15
2023-02-22T05:50:56.975Z,13.32
2023-02-22T05:53:05.737Z,13.75
2023-02-22T05:55:18.015Z,13.35
2023-02-22T05:57:27.268Z,12.18
2023-02-22T05:59:35.342Z,12.85
2023-02-22T06:01:44.893Z,13.38
2023-02-22T06:03:53.252Z,13.60
2023-02-22T06:06:01.100Z,13.15
2023-02-22T06:08:09.960Z,14.05
2023-02-22T06:10:20.858Z,14.32
2023-02-22T06:12:28.810Z,14.00
2023-02-22T06:14:36.943Z,14.73
2023-02-22T06:16:44.841Z,13.70
2023-02-22T06:18:52.937Z,14.50
2023-02-22T06:21:01.162Z,14.35
2023-02-22T06:23:09.077Z,14.23
2023-02-22T06:25:22.492Z,14.25
2023-02-22T06:27:34.113Z,14.75
2023-02-22T06:29:41.983Z,13.68
2023-02-22T06:31:49.928Z,13.25
2023-02-22T06:34:00.641Z,12.98
2023-02-22T06:36:09.795Z,12.43
2023-02-22T06:38:24.458Z,13.13
2023-02-22T06:40:34.884Z,12.35
2023-02-22T06:42:43.386Z,13.60
2023-02-22T06:44:51.838Z,12.70
2023-02-22T06:46:59.930Z,13.15
2023-02-22T06:49:08.248Z,12.63
2023-02-22T06:51:16.273Z,13.60
2023-02-22T06:53:24.171Z,12.85
2023-02-22T06:55:36.138Z,13.05
2023-02-22T06:57:43.925Z,13.68
2023-02-22T06:59:53.346Z,12.82
2023-02-22T07:02:01.431Z,12.57
2023-02-22T07:04:12.390Z,11.75
2023-02-22T07:06:20.251Z,11.50
2023-02-22T07:08:29.530Z,12.65
2023-02-22T07:10:41.300Z,12.52
2023-02-22T07:12:49.200Z,12.88
2023-02-22T07:14:58.237Z,12.95
2023-02-22T07:17:06.155Z,12.20
2023-02-22T07:19:14.262Z,11.63
2023-02-22T07:21:23.722Z,11.88
2023-02-22T07:23:31.532Z,13.07
2023-02-22T07:25:42.128Z,13.38
2023-02-22T07:27:52.563Z,13.43
2023-02-22T07:30:00.699Z,13.00
2023-02-22T07:32:10.068Z,12.20
2023-02-22T07:34:17.951Z,11.85
2023-02-22T07:36:26.207Z,12.43
2023-02-22T07:38:34.336Z,12.30
2023-02-22T07:40:45.814Z,13.13
2023-02-22T07:42:57.831Z,12.20
2023-02-22T07:45:06.449Z,12.65
2023-02-22T07:47:15.548Z,12.00
2023-02-22T07:49:23.336Z,11.98
2023-02-22T07:51:31.294Z,11.55
2023-02-22T07:53:39.258Z,12.48
2023-02-22T07:55:51.292Z,12.80
2023-02-22T07:58:01.725Z,11.98
2023-02-22T08:00:11.038Z,11.40
2023-02-22T08:02:29.754Z,12.80
2023-02-22T08:04:39.552Z,12.63
2023-02-22T08:06:47.585Z,12.75
2023-02-22T08:08:55.705Z,13.40
2023-02-22T08:11:06.528Z,12.43
2023-02-22T08:13:26.809Z,12.82
2023-02-22T08:15:37.872Z,12.00
2023-02-22T08:17:46.610Z,11.02
2023-02-22T08:19:54.369Z,12.43
2023-02-22T08:22:04.839Z,12.13
2023-02-22T08:24:13.956Z,12.55
2023-02-22T08:26:25.614Z,11.38
2023-02-22T08:28:33.417Z,13.20
2023-02-22T08:30:43.848Z,12.85
2023-02-22T08:32:54.858Z,11.55
2023-02-22T08:35:04.058Z,12.07
2023-02-22T08:37:12.202Z,12.02
2023-02-22T08:39:19.965Z,13.70
2023-02-22T08:41:30.489Z,13.00
2023-02-22T08:43:38.637Z,11.98
2023-02-22T08:45:48.280Z,12.30
2023-02-22T08:47:56.085Z,13.05
2023-02-22T08:50:04.062Z,13.18
2023-02-22T08:52:12.261Z,13.27
2023-02-22T08:54:20.183Z,13.95
2023-02-22T08:56:30.654Z,13.27
2023-02-22T08:58:38.710Z,13.02
2023-02-22T09:00:47.369Z,12.60
2023-02-22T09:02:56.140Z,12.60
2023-02-22T09:05:05.888Z,12.30
2023-02-22T09:07:14.207Z,12.43
2023-02-22T09:09:22.508Z,13.00
2023-02-22T09:11:33.153Z,12.65
2023-02-22T09:13:41.002Z,13.20
2023-02-22T09:15:48.885Z,12.57
2023-02-22T09:17:57.049Z,12.75
2023-02-22T09:20:05.019Z,13.02
2023-02-22T09:22:13.047Z,13.18
2023-02-22T09:24:21.041Z,12.45
2023-02-22T09:26:28.968Z,11.90
2023-02-22T09:28:39.847Z,11.55
2023-02-22T09:30:47.987Z,11.25
2023-02-22T09:32:58.131Z,11.40
2023-02-22T09:35:08.854Z,12.50
2023-02-22T09:37:17.964Z,12.57
2023-02-22T09:39:28.931Z,12.45
2023-02-22T09:41:43.008Z,11.80
2023-02-22T09:44:01.613Z,12.27
2023-02-22T09:46:19.513Z,12.82
2023-02-22T09:48:28.390Z,11.80
2023-02-22T09:50:42.404Z,11.13
2023-02-22T09:52:57.569Z,10.90
2023-02-22T09:55:12.227Z,12.43
2023-02-22T09:57:26.798Z,11.50
2023-02-22T09:59:43.204Z,12.93
2023-02-22T10:01:58.387Z,13.10
2023-02-22T10:04:14.043Z,13.07
2023-02-22T10:06:24.395Z,12.98
2023-02-22T10:08:35.163Z,14.32
2023-02-22T10:10:46.222Z,12.45
2023-02-22T10:13:06.478Z,12.32
2023-02-22T10:15:47.226Z,12.90
2023-02-22T10:18:05.025Z,12.45
2023-02-22T10:20:41.142Z,13.68
2023-02-22T10:23:01.328Z,12.60
2023-02-22T10:25:18.218Z,13.73
2023-02-22T10:27:33.172Z,13.10
2023-02-22T10:29:45.170Z,12.88
2023-02-22T10:32:02.923Z,12.82
2023-02-22T10:34:17.258Z,12.32
2023-02-22T10:36:26.972Z,12.68
2023-02-22T10:38:36.675Z,13.32
2023-02-22T10:40:49.086Z,12.48
2023-02-22T10:42:59.257Z,13.43
2023-02-22T10:45:07.954Z,12.02
2023-02-22T10:47:21.948Z,13.60
2023-02-22T10:49:34.979Z,12.85
2023-02-22T10:51:42.904Z,14.35
2023-02-22T10:54:01.521Z,13.52
2023-02-22T10:56:16.381Z,14.10
2023-02-22T10:58:24.587Z,13.45
2023-02-22T11:00:37.499Z,13.32
2023-02-22T11:02:54.124Z,12.15
2023-02-22T11:05:06.335Z,11.40
2023-02-22T11:07:23.426Z,11.13
2023-02-22T11:09:31.301Z,11.52
2023-02-22T11:11:40.109Z,10.80
2023-02-22T11:13:47.988Z,11.35
2023-02-22T11:15:56.700Z,10.40
2023-02-22T11:18:08.920Z,10.88
2023-02-22T11:20:25.919Z,12.65
2023-02-22T11:22:41.183Z,10.93
2023-02-22T11:24:58.104Z,11.35
2023-02-22T11:27:09.154Z,11.68
2023-02-22T11:29:24.879Z,11.23
2023-02-22T11:31:33.000Z,12.25
2023-02-22T11:33:52.603Z,12.10
2023-02-22T11:36:04.935Z,12.70
2023-02-22T11:38:17.408Z,12.38
2023-02-22T11:40:28.190Z,12.70
2023-02-22T11:42:36.202Z,13.55
2023-02-22T11:44:45.217Z,12.00
2023-02-22T11:46:55.840Z,11.70
2023-02-22T11:49:11.121Z,12.55
2023-02-22T11:51:27.649Z,12.85
2023-02-22T11:53:49.564Z,11.90
2023-02-22T11:56:14.090Z,11.85
2023-02-22T11:58:36.826Z,13.27
2023-02-22T12:00:56.881Z,16.38
2023-02-22T12:03:37.003Z,13.98
2023-02-22T12:06:08.404Z,12.60
2023-02-22T12:08:28.926Z,11.95
2023-02-22T12:10:50.936Z,11.70
2023-02-22T12:13:09.768Z,12.63
2023-02-22T12:15:27.319Z,13.40
2023-02-22T12:17:59.397Z,11.75
2023-02-22T12:20:21.532Z,13.50
2023-02-22T12:22:36.597Z,12.95
2023-02-22T12:24:53.360Z,11.68
2023-02-22T12:27:06.855Z,12.20
2023-02-22T12:29:19.441Z,12.80
2023-02-22T12:31:34.033Z,12.77
2023-02-22T12:33:52.443Z,12.80
2023-02-22T12:36:03.610Z,12.07
2023-02-22T12:38:23.253Z,11.82
2023-02-22T12:40:38.296Z,13.45
2023-02-22T12:42:56.378Z,12.20
2023-02-22T12:45:10.391Z,13.00
2023-02-22T12:47:24.851Z,13.80
2023-02-22T12:49:39.040Z,12.77
2023-02-22T12:51:50.035Z,12.50
2023-02-22T12:54:08.169Z,12.93
2023-02-22T12:56:24.736Z,13.23
2023-02-22T12:58:39.551Z,12.73
2023-02-22T13:00:51.065Z,12.20
2023-02-22T13:03:03.696Z,13.05
2023-02-22T13:05:18.152Z,12.43
2023-02-22T13:07:43.075Z,13.10
2023-02-22T13:10:14.412Z,11.70
2023-02-22T13:12:27.808Z,12.25
2023-02-22T13:14:47.633Z,12.68
2023-02-22T13:17:02.072Z,12.50
2023-02-22T13:19:23.573Z,12.55
2023-02-22T13:21:40.651Z,12.27
2023-02-22T13:24:03.465Z,12.50
2023-02-22T13:26:21.596Z,12.88
2023-02-22T13:28:38.260Z,11.73
2023-02-22T13:30:55.208Z,13.23
2023-02-22T13:33:31.607Z,12.20
2023-02-22T13:35:56.658Z,12.70
2023-02-22T13:38:37.372Z,12.60
2023-02-22T13:41:10.014Z,13.23
2023-02-22T13:43:37.605Z,12.75
2023-02-22T13:46:08.524Z,11.70
2023-02-22T13:48:45.224Z,11.55
2023-02-22T13:51:07.499Z,11.65
2023-02-22T13:53:19.933Z,10.85
2023-02-22T13:55:32.745Z,11.75
2023-02-22T13:57:48.322Z,11.00
2023-02-22T14:00:28.843Z,10.55
2023-02-22T14:03:01.772Z,10.85
2023-02-22T14:05:50.028Z,11.35
2023-02-22T14:07:58.924Z,10.65
2023-02-22T14:10:07.141Z,11.07
2023-02-22T14:12:53.452Z,9.95
2023-02-22T14:15:29.842Z,10.60
2023-02-22T14:17:39.646Z,10.35
2023-02-22T14:20:20.137Z,12.25
2023-02-22T14:22:31.855Z,11.00
2023-02-22T14:24:46.155Z,10.77
2023-02-22T14:27:06.617Z,10.90
2023-02-22T14:29:22.030Z,10.10
2023-02-22T14:31:37.266Z,11.23
2023-02-22T14:34:07.807Z,10.00
2023-02-22T14:36:16.138Z,10.98
2023-02-22T14:38:25.263Z,10.25
2023-02-22T14:40:36.212Z,10.50
2023-02-22T14:42:48.811Z,10.10
2023-02-22T14:45:03.364Z,10.85
2023-02-22T14:47:21.035Z,11.73
2023-02-22T14:49:33.137Z,12.50
2023-02-22T14:51:45.192Z,11.43
2023-02-22T14:53:56.879Z,12.43
2023-02-22T14:56:08.887Z,12.50
2023-02-22T14:58:21.189Z,12.40
2023-02-22T15:00:42.233Z,11.07
2023-02-22T15:02:52.437Z,13.32
2023-02-22T15:05:01.392Z,12.18
2023-02-22T15:07:22.346Z,11.48
2023-02-22T15:09:37.702Z,11.45
2023-02-22T15:11:46.389Z,12.98
2023-02-22T15:13:55.591Z,11.90
2023-02-22T15:16:09.080Z,12.63
2023-02-22T15:18:27.344Z,11.98
2023-02-22T15:20:39.453Z,11.00
2023-02-22T15:22:47.385Z,12.18
2023-02-22T15:25:03.021Z,11.77
2023-02-22T15:27:17.925Z,12.52
2023-02-22T15:29:27.847Z,12.10
2023-02-22T15:31:41.403Z,12.10
2023-02-22T15:33:53.152Z,13.35
2023-02-22T15:36:00.760Z,12.65
2023-02-22T15:38:21.803Z,12.70
2023-02-22T15:40:33.355Z,12.45
2023-02-22T15:42:47.164Z,12.95
2023-02-22T15:44:56.828Z,12.88
2023-02-22T15:47:08.309Z,14.05
2023-02-22T15:49:29.443Z,13.23
2023-02-22T15:51:40.500Z,14.63
2023-02-22T15:53:50.675Z,15.00
2023-02-22T15:56:00.772Z,14.13
2023-02-22T15:58:13.832Z,13.95
2023-02-22T16:00:33.605Z,13.10
2023-02-22T16:02:44.500Z,13.77
2023-02-22T16:04:59.551Z,13.55
2023-02-22T16:07:17.148Z,14.95
2023-02-22T16:09:27.203Z,15.23
2023-02-22T16:11:40.408Z,15.18
2023-02-22T16:13:55.526Z,15.25
2023-02-22T16:16:05.986Z,14.98
2023-02-22T16:18:30.079Z,14.68
2023-02-22T16:20:38.919Z,13.75
2023-02-22T16:22:49.530Z,15.73
2023-02-22T16:25:16.414Z,14.95
2023-02-22T16:27:26.713Z,15.70
2023-02-22T16:29:34.698Z,17.80
2023-02-22T16:31:43.457Z,16.80
2023-02-22T16:33:54.764Z,16.45
2023-02-22T16:36:08.685Z,15.25
2023-02-22T16:38:17.558Z,15.43
2023-02-22T16:40:27.536Z,15.45
2023-02-22T16:42:35.374Z,15.60
2023-02-22T16:44:43.293Z,14.65
2023-02-22T16:46:51.132Z,15.27
2023-02-22T16:49:03.552Z,13.82
2023-02-22T16:51:19.743Z,16.17
2023-02-22T16:53:33.619Z,17.27
2023-02-22T16:55:41.472Z,17.80
2023-02-22T16:57:51.510Z,16.73
2023-02-22T16:59:59.592Z,16.45
2023-02-22T17:02:08.842Z,15.95
2023-02-22T17:04:24.336Z,15.13
2023-02-22T17:06:32.929Z,14.73
2023-02-22T17:08:41.052Z,15.20
2023-02-22T17:10:51.731Z,14.77
2023-02-22T17:13:07.213Z,16.30
2023-02-22T17:15:25.284Z,15.05
2023-02-22T17:17:33.109Z,16.30
2023-02-22T17:19:43.955Z,14.57
2023-02-22T17:21:52.208Z,14.65
2023-02-22T17:24:00.163Z,15.25
2023-02-22T17:26:08.351Z,15.93
2023-02-22T17:28:16.973Z,16.80
2023-02-22T17:30:26.812Z,16.50
2023-02-22T17:32:34.987Z,16.15
2023-02-22T17:34:45.479Z,15.70
2023-02-22T17:36:53.695Z,15.68
2023-02-22T17:39:03.178Z,16.27
2023-02-22T17:41:11.089Z,15.88
2023-02-22T17:43:20.710Z,16.65
2023-02-22T17:45:28.804Z,17.00
2023-02-22T17:47:36.828Z,17.83
2023-02-22T17:49:47.228Z,15.57
2023-02-22T17:51:55.984Z,15.25
2023-02-22T17:54:03.786Z,14.65
2023-02-22T17:56:13.638Z,16.55
2023-02-22T17:58:22.377Z,15.93
2023-02-22T18:00:35.965Z,16.05
2023-02-22T18:02:44.788Z,15.95
2023-02-22T18:04:55.723Z,16.48
2023-02-22T18:07:04.479Z,16.70
2023-02-22T18:09:17.853Z,18.80
2023-02-22T18:11:26.736Z,17.40
2023-02-22T18:13:34.569Z,17.48
2023-02-22T18:15:43.483Z,17.10
2023-02-22T18:17:51.983Z,16.75
2023-02-22T18:20:02.678Z,19.58
2023-02-22T18:22:10.777Z,17.15
2023-02-22T18:24:18.681Z,19.55
2023-02-22T18:26:29.012Z,19.30
2023-02-22T18:28:37.310Z,17.88
2023-02-22T18:30:46.224Z,18.60
2023-02-22T18:32:54.129Z,17.98
2023-02-22T18:35:05.246Z,19.33
2023-02-22T18:37:13.196Z,17.77
2023-02-22T18:39:21.196Z,19.48
2023-02-22T18:41:29.221Z,18.67
2023-02-22T18:43:37.235Z,17.50
2023-02-22T18:45:45.106Z,20.73
2023-02-22T18:47:53.500Z,19.70
2023-02-22T18:50:04.096Z,18.83
2023-02-22T18:52:12.992Z,18.65
2023-02-22T18:54:22.384Z,18.73
2023-02-22T18:56:34.119Z,18.90
2023-02-22T18:58:43.686Z,18.35
2023-02-22T19:00:52.138Z,19.25
2023-02-22T19:03:00.136Z,19.00
2023-02-22T19:05:11.237Z,22.38
2023-02-22T19:07:22.125Z,23.23
2023-02-22T19:09:30.806Z,27.42
2023-02-22T19:11:44.937Z,20.92
2023-02-22T19:13:55.288Z,19.38
2023-02-22T19:16:06.174Z,19.98
2023-02-22T19:18:17.216Z,21.13
2023-02-22T19:20:34.122Z,19.10
2023-02-22T19:22:42.686Z,17.75
2023-02-22T19:24:54.354Z,18.40
2023-02-22T19:27:03.020Z,19.48
2023-02-22T19:29:11.742Z,19.00
2023-02-22T19:31:25.996Z,18.45
2023-02-22T19:33:34.008Z,18.65
2023-02-22T19:35:48.309Z,19.30
2023-02-22T19:37:57.321Z,19.55
2023-02-22T19:40:09.248Z,18.10
2023-02-22T19:42:17.238Z,19.25
2023-02-22T19:44:25.245Z,20.70
2023-02-22T19:46:34.902Z,22.45
2023-02-22T19:48:44.038Z,24.70
2023-02-22T19:50:57.945Z,21.63
2023-02-22T19:53:07.591Z,23.25
2023-02-22T19:55:16.069Z,24.02
2023-02-22T19:57:25.020Z,22.75
2023-02-22T19:59:32.999Z,22.42
2023-02-22T20:01:41.457Z,23.55
2023-02-22T20:03:52.458Z,21.40
2023-02-22T20:06:03.029Z,22.13
2023-02-22T20:08:11.687Z,22.13
2023-02-22T20:10:19.733Z,22.50
2023-02-22T20:12:27.613Z,21.48
2023-02-22T20:14:35.750Z,23.08
2023-02-22T20:16:43.679Z,21.40
2023-02-22T20:18:52.393Z,21.25
2023-02-22T20:21:04.087Z,21.67
2023-02-22T20:23:13.377Z,21.17
2023-02-22T20:25:21.536Z,22.63
2023-02-22T20:27:29.427Z,20.60
2023-02-22T20:29:37.490Z,20.60
2023-02-22T20:31:49.459Z,23.13
2023-02-22T20:33:59.775Z,24.40
2023-02-22T20:36:12.024Z,23.10
2023-02-22T20:38:20.667Z,22.63
2023-02-22T20:40:28.453Z,23.50
2023-02-22T20:42:36.576Z,23.40
2023-02-22T20:44:45.197Z,22.98
2023-02-22T20:46:53.291Z,22.73
2023-02-22T20:49:03.560Z,25.23
2023-02-22T20:51:16.743Z,23.70
2023-02-22T20:53:24.780Z,23.63
2023-02-22T20:55:32.705Z,24.40
2023-02-22T20:57:40.640Z,25.10
2023-02-22T20:59:50.869Z,25.35
2023-02-22T21:02:01.362Z,24.40
2023-02-22T21:04:13.681Z,24.38
2023-02-22T21:06:24.821Z,23.83
2023-02-22T21:08:32.748Z,24.27
2023-02-22T21:10:44.981Z,26.00
2023-02-22T21:12:53.964Z,24.70
2023-02-22T21:15:01.866Z,24.90
2023-02-22T21:17:10.621Z,23.80
2023-02-22T21:19:27.636Z,26.00
2023-02-22T21:21:38.511Z,23.98
2023-02-22T21:23:52.496Z,24.60
2023-02-22T21:26:00.307Z,25.65
2023-02-22T21:28:08.495Z,24.05
2023-02-22T21:30:16.726Z,25.90
2023-02-22T21:32:24.660Z,24.60
2023-02-22T21:34:33.018Z,25.48
2023-02-22T21:36:43.759Z,25.25
2023-02-22T21:38:53.436Z,25.40
2023-02-22T21:41:03.428Z,27.15
2023-02-22T21:43:13.243Z,25.77
2023-02-22T21:45:22.677Z,25.60
2023-02-22T21:47:31.297Z,25.45
2023-02-22T21:49:39.250Z,27.52
2023-02-22T21:51:49.800Z,26.63
2023-02-22T21:53:57.794Z,27.73
2023-02-22T21:56:07.394Z,27.30
2023-02-22T21:58:15.831Z,27.90
2023-02-22T22:00:29.368Z,25.70
2023-02-22T22:02:38.218Z,26.13
2023-02-22T22:04:46.063Z,26.17
2023-02-22T22:06:58.127Z,27.27
2023-02-22T22:09:18.194Z,23.77
2023-02-22T22:11:27.234Z,25.25
2023-02-22T22:13:35.210Z,24.20
2023-02-22T22:15:43.164Z,25.17
2023-02-22T22:17:51.426Z,25.80
2023-02-22T22:19:59.317Z,27.05
2023-02-22T22:22:10.637Z,25.15
2023-02-22T22:24:20.634Z,25.13
2023-02-22T22:26:30.901Z,25.40
2023-02-22T22:28:38.693Z,26.17
2023-02-22T22:30:46.691Z,26.05
2023-02-22T22:32:54.589Z,25.33
2023-02-22T22:35:04.649Z,25.90
2023-02-22T22:37:16.265Z,25.83
2023-02-22T22:39:24.327Z,25.48
2023-02-22T22:41:34.018Z,26.38
2023-02-22T22:43:43.811Z,25.15
2023-02-22T22:45:51.492Z,26.80
2023-02-22T22:47:59.410Z,27.17
2023-02-22T22:50:10.994Z,24.92
2023-02-22T22:52:21.491Z,26.35
2023-02-22T22:54:29.585Z,23.42
2023-02-22T22:56:38.142Z,25.95
2023-02-22T22:58:49.513Z,24.55
2023-02-22T23:00:59.904Z,25.10
2023-02-22T23:03:09.657Z,26.25
2023-02-22T23:05:18.243Z,24.65
2023-02-22T23:07:28.748Z,25.75
2023-02-22T23:09:39.160Z,26.63
2023-02-22T23:11:50.866Z,26.65
2023-02-22T23:14:00.604Z,23.80
2023-02-22T23:16:12.432Z,24.50
2023-02-22T23:18:21.941Z,24.85
2023-02-22T23:20:30.130Z,26.17
2023-02-22T23:22:48.651Z,24.55
2023-02-22T23:24:58.107Z,24.85
2023-02-22T23:27:07.346Z,25.80
2023-02-22T23:29:15.224Z,24.63
2023-02-22T23:31:23.142Z,25.63
2023-02-22T23:33:31.509Z,23.95
2023-02-22T23:35:39.691Z,24.08
2023-02-22T23:37:53.798Z,24.05
2023-02-22T23:40:05.523Z,26.38
2023-02-22T23:42:16.975Z,24.60
2023-02-22T23:44:27.273Z,26.98
2023-02-22T23:46:36.613Z,24.77
2023-02-22T23:48:47.015Z,25.38
2023-02-22T23:50:54.835Z,27.48
2023-02-22T23:53:06.110Z,25.98
2023-02-22T23:55:14.042Z,26.90
2023-02-22T23:57:21.839Z,23.98
2023-02-22T23:59:30.177Z,25.13
